»·PEaware :: N324GM KBLH-KSAN

N324GM :: KBLH-KSAN

FLIGHT INFORMATION

Flight Status: Arrived
Operator: Privately registered:
United States
More flights under this callsign
Pilot: Gavin M. (15591)
Aircraft: BEECH AIRCRAFT BEECH AIRLINER
(B190)
More flights by this aircraft type
Origin: KBLH Blythe
United States
Destination: KSAN San Diego Intl-Lindbergh
United States
More flights between these airports :: More routes between these airports
Route: +BLH V64 TRM V208 JLI V514 CANNO V514 HAILE V66 MZB
File this flight plan on PilotEdge
Remarks:
Altitude:
(Current/Filed)
15,000ft
Speed:
(Current/Filed)
200kts
Departed: 10-Oct-17 05:07 PM
Arrived: 10-Oct-17 05:50 PM
Distance/Time
Traveled:
135nm/0:43
Distance/Time
To Go:
Arrived

Flight Plot

Page will automatically refresh every two minutes.

Flight plan parsing failed; only flown route is shown


Map Options




Map Legend


Flown Route
Filed Route
Departure Airport
Arrival Airport
Navaid (VOR, NDB)
Fix

Horizontal Profiles

Position Reports

Time Latitude Longitude Heading Altitude Ground
Speed
10-Oct-17 16:56 33.614455 -114.712241 270 403ft 0kts
10-Oct-17 16:57 33.614455 -114.712241 270 403ft 0kts
10-Oct-17 16:58 33.614455 -114.712241 270 403ft 0kts
10-Oct-17 16:59 33.614455 -114.712241 270 403ft 0kts
10-Oct-17 17:00 33.614455 -114.712241 270 403ft 0kts
10-Oct-17 17:01 33.614455 -114.712241 270 403ft 0kts
10-Oct-17 17:02 33.614455 -114.712241 269 403ft 0kts
10-Oct-17 17:03 33.614455 -114.712241 269 403ft 0kts
10-Oct-17 17:04 33.614455 -114.712241 269 403ft 0kts
10-Oct-17 17:05 33.614455 -114.712241 269 403ft 0kts
10-Oct-17 17:06 33.614455 -114.712241 269 403ft 0kts
10-Oct-17 17:07 33.614455 -114.712241 269 403ft 0kts
10-Oct-17 17:08 33.614164 -114.715302 236 403ft 14kts
10-Oct-17 17:09 33.614099 -114.715930 274 403ft 0kts
10-Oct-17 17:10 33.614099 -114.715931 274 403ft 0kts
10-Oct-17 17:11 33.615098 -114.716796 1 403ft 53kts
10-Oct-17 17:12 33.645458 -114.728057 279 1744ft 144kts
10-Oct-17 17:13 33.613466 -114.753877 214 3361ft 158kts
10-Oct-17 17:14 33.594834 -114.796081 272 5391ft 152kts
10-Oct-17 17:15 33.594435 -114.855837 266 7651ft 179kts
10-Oct-17 17:16 33.599096 -114.920510 274 9428ft 208kts
10-Oct-17 17:17 33.602362 -114.991017 271 11134ft 215kts
10-Oct-17 17:18 33.604466 -115.062390 269 12828ft 213kts
10-Oct-17 17:19 33.606218 -115.131879 269 14504ft 207kts
10-Oct-17 17:20 33.607985 -115.205224 270 14992ft 239kts
10-Oct-17 17:21 33.610039 -115.287399 270 14972ft 252kts
10-Oct-17 17:22 33.612082 -115.371940 270 14957ft 255kts
10-Oct-17 17:23 33.614042 -115.456264 270 14944ft 256kts
10-Oct-17 17:24 33.615968 -115.541835 270 14944ft 256kts
10-Oct-17 17:25 33.617829 -115.627206 269 14943ft 256kts
10-Oct-17 17:26 33.590795 -115.691865 239 14939ft 255kts
10-Oct-17 17:27 33.554567 -115.764560 239 14937ft 255kts
10-Oct-17 17:28 33.521246 -115.831344 239 14937ft 255kts
10-Oct-17 17:29 33.485701 -115.902481 239 13998ft 250kts
10-Oct-17 17:30 33.451081 -115.971599 239 13321ft 240kts
10-Oct-17 17:31 33.416866 -116.039787 239 12818ft 238kts
10-Oct-17 17:32 33.386446 -116.100305 239 12373ft 238kts
10-Oct-17 17:33 33.352772 -116.167165 238 11950ft 244kts
10-Oct-17 17:34 33.317227 -116.237621 239 11936ft 249kts
10-Oct-17 17:35 33.281900 -116.307514 239 11935ft 250kts
10-Oct-17 17:36 33.246160 -116.378082 239 11942ft 250kts
10-Oct-17 17:37 33.210498 -116.448341 238 11957ft 249kts
10-Oct-17 17:39 33.174667 -116.518808 238 11971ft 249kts
10-Oct-17 17:40 33.133530 -116.583217 197 11984ft 251kts
10-Oct-17 17:41 33.063949 -116.593417 187 11980ft 253kts
10-Oct-17 17:42 32.994546 -116.601144 186 11170ft 249kts
10-Oct-17 17:43 32.926494 -116.608188 186 9957ft 245kts
10-Oct-17 17:44 32.860681 -116.614962 187 8786ft 244kts
10-Oct-17 17:45 32.793588 -116.622655 199 7566ft 243kts
10-Oct-17 17:46 32.772548 -116.690590 252 6418ft 237kts
10-Oct-17 17:47 32.752149 -116.764548 251 5232ft 236kts
10-Oct-17 17:48 32.733144 -116.832122 251 4946ft 212kts
10-Oct-17 17:49 32.718191 -116.898561 253 4100ft 211kts
10-Oct-17 17:50 32.701268 -116.962184 253 2982ft 190kts
10-Oct-17 17:51 32.695779 -117.017577 279 1869ft 163kts
10-Oct-17 17:52 32.705462 -117.067351 284 1020ft 147kts
10-Oct-17 17:53 32.713965 -117.108954 285 1078ft 129kts
10-Oct-17 17:54 32.724268 -117.151213 285 633ft 133kts
10-Oct-17 17:55 32.732900 -117.186921 286 22ft 38kts
10-Oct-17 17:56 32.732834 -117.190911 287 22ft 13kts
10-Oct-17 17:57 32.731722 -117.192479 118 22ft 16kts

Navigation Log

Ident Type
Flight plan parsing failed, navigation log unavailable